createdAt,value
2023-03-29T00:00:34.809Z,100.00
2023-03-29T00:04:03.029Z,100.00
2023-03-29T00:07:30.643Z,100.00
2023-03-29T00:10:40.726Z,100.00
2023-03-29T00:13:50.654Z,100.00
2023-03-29T00:17:18.364Z,100.00
2023-03-29T00:20:47.202Z,100.00
2023-03-29T00:24:15.158Z,100.00
2023-03-29T00:27:23.818Z,100.00
2023-03-29T00:30:51.694Z,100.00
2023-03-29T00:34:19.572Z,100.00
2023-03-29T00:37:27.921Z,100.00
2023-03-29T00:40:55.897Z,100.00
2023-03-29T00:44:03.882Z,100.00
2023-03-29T00:46:33.673Z,100.00
2023-03-29T00:50:01.467Z,100.00
2023-03-29T00:53:29.548Z,100.00
2023-03-29T00:56:57.523Z,100.00
2023-03-29T00:59:46.433Z,100.00
2023-03-29T01:02:55.358Z,100.00
2023-03-29T01:06:23.063Z,100.00
2023-03-29T01:09:31.227Z,100.00
2023-03-29T01:12:58.883Z,100.00
2023-03-29T01:16:27.720Z,100.00
2023-03-29T01:19:55.560Z,100.00
2023-03-29T01:23:23.348Z,100.00
2023-03-29T01:26:51.109Z,100.00
2023-03-29T01:29:59.794Z,100.00
2023-03-29T01:33:28.204Z,100.00
2023-03-29T01:36:56.375Z,100.00
2023-03-29T01:40:24.449Z,100.00
2023-03-29T01:43:52.375Z,100.00
2023-03-29T01:47:20.239Z,100.00
2023-03-29T01:50:49.054Z,100.00
2023-03-29T01:53:38.270Z,100.00
2023-03-29T01:56:46.448Z,100.00
2023-03-29T02:00:14.174Z,100.00
2023-03-29T02:03:42.300Z,100.00
2023-03-29T02:07:10.230Z,100.00
2023-03-29T02:10:38.185Z,100.00
2023-03-29T02:14:06.176Z,100.00
2023-03-29T02:17:33.901Z,100.00
2023-03-29T02:21:01.923Z,100.00
2023-03-29T02:24:29.605Z,100.00
2023-03-29T02:27:57.333Z,100.00
2023-03-29T02:31:06.409Z,100.00
2023-03-29T02:34:34.736Z,100.00
2023-03-29T02:38:02.773Z,100.00
2023-03-29T02:41:30.824Z,100.00
2023-03-29T02:44:58.778Z,100.00
2023-03-29T02:48:07.826Z,100.00
2023-03-29T02:51:35.612Z,100.00
2023-03-29T02:54:45.203Z,100.00
2023-03-29T02:57:54.299Z,100.00
2023-03-29T03:01:23.269Z,100.00
2023-03-29T03:04:51.301Z,100.00
2023-03-29T03:07:42.006Z,100.00
2023-03-29T03:11:09.885Z,100.00
2023-03-29T03:14:37.644Z,100.00
2023-03-29T03:18:05.473Z,100.00
2023-03-29T03:21:33.287Z,100.00
2023-03-29T03:25:01.022Z,100.00
2023-03-29T03:28:29.390Z,100.00
2023-03-29T03:31:38.437Z,100.00
2023-03-29T03:35:04.970Z,100.00
2023-03-29T03:38:13.619Z,100.00
2023-03-29T03:41:41.442Z,100.00
2023-03-29T03:45:09.288Z,100.00
2023-03-29T03:48:37.090Z,100.00
2023-03-29T03:52:04.917Z,100.00
2023-03-29T03:55:32.827Z,100.00
2023-03-29T03:58:43.960Z,100.00
2023-03-29T04:02:12.045Z,100.00
2023-03-29T04:05:40.608Z,100.00
2023-03-29T04:09:08.533Z,100.00
2023-03-29T04:12:36.444Z,100.00
2023-03-29T04:16:04.282Z,100.00
2023-03-29T04:19:32.352Z,100.00
2023-03-29T04:23:00.285Z,100.00
2023-03-29T04:26:28.162Z,100.00
2023-03-29T04:29:55.803Z,100.00
2023-03-29T04:33:36.136Z,100.00
2023-03-29T04:37:03.783Z,100.00
2023-03-29T04:39:53.715Z,100.00
2023-03-29T04:43:24.358Z,100.00
2023-03-29T04:46:52.135Z,100.00
2023-03-29T04:50:07.297Z,100.00
2023-03-29T04:53:35.600Z,100.00
2023-03-29T04:57:03.279Z,100.00
2023-03-29T05:00:37.213Z,100.00
2023-03-29T05:04:12.818Z,100.00
2023-03-29T05:07:42.341Z,100.00
2023-03-29T05:11:10.317Z,100.00
2023-03-29T05:14:20.155Z,100.00
2023-03-29T05:17:47.977Z,100.00
2023-03-29T05:21:15.623Z,100.00
2023-03-29T05:24:43.540Z,100.00
2023-03-29T05:28:11.310Z,100.00
2023-03-29T05:31:39.270Z,100.00
2023-03-29T05:35:07.119Z,100.00
2023-03-29T05:37:58.246Z,100.00
2023-03-29T05:41:08.015Z,100.00
2023-03-29T05:44:18.671Z,100.00
2023-03-29T05:47:46.629Z,100.00
2023-03-29T05:51:14.353Z,100.00
2023-03-29T05:54:42.322Z,100.00
2023-03-29T05:58:10.343Z,100.00
2023-03-29T06:01:19.275Z,100.00
2023-03-29T06:04:47.109Z,100.00
2023-03-29T06:08:15.521Z,100.00
2023-03-29T06:11:46.343Z,100.00
2023-03-29T06:15:16.957Z,100.00
2023-03-29T06:18:44.800Z,100.00
2023-03-29T06:22:14.699Z,100.00
2023-03-29T06:25:40.858Z,100.00
2023-03-29T06:29:08.813Z,100.00
2023-03-29T06:32:17.689Z,100.00
2023-03-29T06:35:48.548Z,100.00
2023-03-29T06:39:16.865Z,100.00
2023-03-29T06:42:44.935Z,99.71
2023-03-29T06:46:25.285Z,99.93
2023-03-29T06:49:53.286Z,99.65
2023-03-29T06:53:10.990Z,99.37
2023-03-29T06:56:38.880Z,97.78
2023-03-29T07:00:06.830Z,96.18
2023-03-29T07:03:46.092Z,93.79
2023-03-29T07:07:11.165Z,94.93
2023-03-29T07:10:39.407Z,93.63
2023-03-29T07:14:05.766Z,92.16
2023-03-29T07:17:15.231Z,90.24
2023-03-29T07:20:42.979Z,86.09
2023-03-29T07:24:11.221Z,81.70
2023-03-29T07:27:39.184Z,84.06
2023-03-29T07:31:06.965Z,77.54
2023-03-29T07:34:34.912Z,77.30
2023-03-29T07:38:02.604Z,76.37
2023-03-29T07:41:30.336Z,74.08
2023-03-29T07:44:57.997Z,73.32
2023-03-29T07:48:25.761Z,70.09
2023-03-29T07:51:54.008Z,64.10
2023-03-29T07:55:22.298Z,59.52
2023-03-29T07:58:50.012Z,58.69
2023-03-29T08:02:18.947Z,57.03
2023-03-29T08:05:46.977Z,52.80
2023-03-29T08:09:14.801Z,51.09
2023-03-29T08:12:42.947Z,49.87
2023-03-29T08:16:27.713Z,47.92
2023-03-29T08:19:55.831Z,46.14
2023-03-29T08:23:23.854Z,46.56
2023-03-29T08:26:51.719Z,45.35
2023-03-29T08:30:19.411Z,43.41
2023-03-29T08:33:47.227Z,44.66
2023-03-29T08:36:55.396Z,44.09
2023-03-29T08:40:23.353Z,44.18
2023-03-29T08:43:31.184Z,44.10
2023-03-29T08:47:14.685Z,43.60
2023-03-29T08:50:45.654Z,44.51
2023-03-29T08:54:13.338Z,43.71
2023-03-29T08:57:30.221Z,43.59
2023-03-29T09:00:57.989Z,43.90
2023-03-29T09:04:31.587Z,41.91
2023-03-29T09:08:11.901Z,41.31
2023-03-29T09:11:39.779Z,42.49
2023-03-29T09:15:07.780Z,42.94
2023-03-29T09:18:35.933Z,43.01
2023-03-29T09:22:03.874Z,43.22
2023-03-29T09:25:34.490Z,44.09
2023-03-29T09:28:59.923Z,44.72
2023-03-29T09:32:27.848Z,42.32
2023-03-29T09:35:55.544Z,42.60
2023-03-29T09:39:23.642Z,41.73
2023-03-29T09:42:51.522Z,43.05
2023-03-29T09:45:40.476Z,42.25
2023-03-29T09:49:08.238Z,40.07
2023-03-29T09:52:36.001Z,41.23
2023-03-29T09:56:03.927Z,41.59
2023-03-29T09:59:15.494Z,40.39
2023-03-29T10:02:24.260Z,43.47
2023-03-29T10:05:51.945Z,40.80
2023-03-29T10:09:19.764Z,39.60
2023-03-29T10:12:28.523Z,39.41
2023-03-29T10:15:56.376Z,40.47
2023-03-29T10:19:24.314Z,39.64
2023-03-29T10:22:52.196Z,39.46
2023-03-29T10:26:20.056Z,39.83
2023-03-29T10:29:48.059Z,39.74
2023-03-29T10:33:15.818Z,38.65
2023-03-29T10:36:43.695Z,38.42
2023-03-29T10:40:14.566Z,38.82
2023-03-29T10:43:24.796Z,39.44
2023-03-29T10:46:52.778Z,38.42
2023-03-29T10:50:20.635Z,38.21
2023-03-29T10:53:48.630Z,38.51
2023-03-29T10:57:16.470Z,37.75
2023-03-29T11:00:44.309Z,37.81
2023-03-29T11:04:12.340Z,37.36
2023-03-29T11:07:40.090Z,37.03
2023-03-29T11:11:07.954Z,37.09
2023-03-29T11:14:35.928Z,35.52
2023-03-29T11:18:03.948Z,36.39
2023-03-29T11:21:32.080Z,36.59
2023-03-29T11:25:00.249Z,37.10
2023-03-29T11:28:28.491Z,37.02
2023-03-29T11:31:56.297Z,36.11
2023-03-29T11:35:24.246Z,36.15
2023-03-29T11:38:52.174Z,34.63
2023-03-29T11:42:20.046Z,36.87
2023-03-29T11:45:28.946Z,35.10
2023-03-29T11:48:56.692Z,34.14
2023-03-29T11:52:24.691Z,34.21
2023-03-29T11:55:52.490Z,34.14
2023-03-29T11:59:20.195Z,33.34
2023-03-29T12:02:48.640Z,32.15
2023-03-29T12:06:16.155Z,32.24
2023-03-29T12:09:43.905Z,31.85
2023-03-29T12:13:12.035Z,31.90
2023-03-29T12:16:39.973Z,32.08
2023-03-29T12:20:07.705Z,32.83
2023-03-29T12:23:35.738Z,32.66
2023-03-29T12:27:03.633Z,32.18
2023-03-29T12:30:33.198Z,32.16
2023-03-29T12:33:59.719Z,32.33
2023-03-29T12:37:20.011Z,32.14
2023-03-29T12:40:46.664Z,31.36
2023-03-29T12:44:12.879Z,30.94
2023-03-29T12:47:41.066Z,30.84
2023-03-29T12:50:49.301Z,30.70
2023-03-29T12:54:17.288Z,30.62
2023-03-29T12:57:45.157Z,29.97
2023-03-29T13:01:13.507Z,29.60
2023-03-29T13:04:41.213Z,28.02
2023-03-29T13:08:10.267Z,29.12
2023-03-29T13:11:38.159Z,28.26
2023-03-29T13:15:05.878Z,26.67
2023-03-29T13:18:33.671Z,26.70
2023-03-29T13:22:01.586Z,27.21
2023-03-29T13:25:29.726Z,27.00
2023-03-29T13:28:58.507Z,27.28
2023-03-29T13:32:25.563Z,27.37
2023-03-29T13:35:53.590Z,25.55
2023-03-29T13:39:21.412Z,25.57
2023-03-29T13:42:49.326Z,25.67
2023-03-29T13:45:58.512Z,24.94
2023-03-29T13:49:26.545Z,24.55
2023-03-29T13:52:54.499Z,23.81
2023-03-29T13:56:22.929Z,24.03
2023-03-29T13:59:39.479Z,23.62
2023-03-29T14:03:07.476Z,24.02
2023-03-29T14:06:35.354Z,23.84
2023-03-29T14:10:03.039Z,23.04
2023-03-29T14:13:30.820Z,22.90
2023-03-29T14:16:58.911Z,22.97
2023-03-29T14:20:26.795Z,22.82
2023-03-29T14:23:54.697Z,22.91
2023-03-29T14:27:22.469Z,22.65
2023-03-29T14:30:50.927Z,22.57
2023-03-29T14:34:19.093Z,22.39
2023-03-29T14:37:48.035Z,23.12
2023-03-29T14:41:16.053Z,23.26
2023-03-29T14:44:44.053Z,23.40
2023-03-29T14:48:12.065Z,23.08
2023-03-29T14:51:39.934Z,23.13
2023-03-29T14:55:08.001Z,23.66
2023-03-29T14:58:16.869Z,24.00
2023-03-29T15:01:44.862Z,23.84
2023-03-29T15:05:12.686Z,24.33
2023-03-29T15:08:45.771Z,25.28
2023-03-29T15:12:08.701Z,26.71
2023-03-29T15:15:37.136Z,26.93
2023-03-29T15:19:05.001Z,27.61
2023-03-29T15:22:33.138Z,28.04
2023-03-29T15:26:01.104Z,27.67
2023-03-29T15:29:28.902Z,26.73
2023-03-29T15:32:56.916Z,26.34
2023-03-29T15:36:24.905Z,25.81
2023-03-29T15:39:52.750Z,25.63
2023-03-29T15:43:01.161Z,25.40
2023-03-29T15:46:29.120Z,25.11
2023-03-29T15:49:57.293Z,26.00
2023-03-29T15:53:25.073Z,26.01
2023-03-29T15:56:53.284Z,26.91
2023-03-29T16:00:21.144Z,27.26
2023-03-29T16:06:59.067Z,29.21
2023-03-29T16:10:26.707Z,30.05
2023-03-29T16:13:54.667Z,30.21
2023-03-29T16:17:22.606Z,31.02
2023-03-29T16:20:50.498Z,31.55
2023-03-29T16:24:18.633Z,32.27
2023-03-29T16:27:46.493Z,32.35
2023-03-29T16:30:55.524Z,32.62
2023-03-29T16:34:23.414Z,33.72
2023-03-29T16:37:51.478Z,34.45
2023-03-29T16:41:00.480Z,35.32
2023-03-29T16:44:29.076Z,34.90
2023-03-29T16:47:56.863Z,34.98
2023-03-29T16:51:24.532Z,35.43
2023-03-29T16:54:52.834Z,35.48
2023-03-29T16:58:01.564Z,35.69
2023-03-29T17:01:29.683Z,36.13
2023-03-29T17:04:58.988Z,36.52
2023-03-29T17:08:26.930Z,36.99
2023-03-29T17:11:54.959Z,37.20
2023-03-29T17:15:23.447Z,37.40
2023-03-29T17:18:51.473Z,36.79
2023-03-29T17:22:19.709Z,37.50
2023-03-29T17:25:47.860Z,38.25
2023-03-29T17:29:15.904Z,39.04
2023-03-29T17:32:25.165Z,38.91
2023-03-29T17:35:53.216Z,39.10
2023-03-29T17:39:23.885Z,39.42
2023-03-29T17:42:51.945Z,39.55
2023-03-29T17:46:20.019Z,39.87
2023-03-29T17:49:48.005Z,40.06
2023-03-29T17:53:16.161Z,40.06
2023-03-29T17:56:24.859Z,39.57
2023-03-29T17:59:14.733Z,38.87
2023-03-29T18:02:42.920Z,39.58
2023-03-29T18:06:10.753Z,41.09
2023-03-29T18:09:39.286Z,41.71
2023-03-29T18:13:07.327Z,41.65
2023-03-29T18:16:35.387Z,41.20
2023-03-29T18:19:47.002Z,41.44
2023-03-29T18:22:36.290Z,41.45
2023-03-29T18:26:06.964Z,41.64
2023-03-29T18:29:36.784Z,42.50
2023-03-29T18:33:05.282Z,42.67
2023-03-29T18:36:33.906Z,43.40
2023-03-29T18:40:03.428Z,43.34
2023-03-29T18:42:55.306Z,43.04
2023-03-29T18:46:23.593Z,44.02
2023-03-29T18:49:51.823Z,43.12
2023-03-29T18:53:19.856Z,43.47
2023-03-29T18:56:48.041Z,44.63
2023-03-29T18:59:56.838Z,44.78
2023-03-29T19:03:25.031Z,46.22
2023-03-29T19:06:53.481Z,45.65
2023-03-29T19:10:21.690Z,45.02
2023-03-29T19:13:49.636Z,44.98
2023-03-29T19:17:17.671Z,45.18
2023-03-29T19:20:46.724Z,44.87
2023-03-29T19:24:14.829Z,45.01
2023-03-29T19:27:42.579Z,44.91
2023-03-29T19:31:10.401Z,44.91
2023-03-29T19:34:38.255Z,44.48
2023-03-29T19:38:07.089Z,45.47
2023-03-29T19:41:35.114Z,45.21
2023-03-29T19:45:03.085Z,45.59
2023-03-29T19:48:31.059Z,45.52
2023-03-29T19:51:58.933Z,45.30
2023-03-29T19:55:27.015Z,45.59
2023-03-29T19:58:54.881Z,45.25
2023-03-29T20:02:22.676Z,45.20
2023-03-29T20:05:31.714Z,45.24
2023-03-29T20:08:40.849Z,46.26
2023-03-29T20:12:08.912Z,46.09
2023-03-29T20:15:36.850Z,46.70
2023-03-29T20:19:04.772Z,46.66
2023-03-29T20:22:32.708Z,46.95
2023-03-29T20:26:00.624Z,46.95
2023-03-29T20:29:29.126Z,46.30
2023-03-29T20:32:56.736Z,45.96
2023-03-29T20:36:05.456Z,46.37
2023-03-29T20:39:33.412Z,46.58
2023-03-29T20:43:01.229Z,46.61
2023-03-29T20:46:29.478Z,47.53
2023-03-29T20:49:57.374Z,47.50
2023-03-29T20:53:07.612Z,47.71
2023-03-29T20:56:36.467Z,47.09
2023-03-29T21:00:04.709Z,46.78
2023-03-29T21:03:13.915Z,47.24
2023-03-29T21:06:41.994Z,48.47
2023-03-29T21:10:10.744Z,48.25
2023-03-29T21:13:38.585Z,49.96
2023-03-29T21:17:07.314Z,50.34
2023-03-29T21:20:35.289Z,49.75
2023-03-29T21:24:03.076Z,50.30
2023-03-29T21:27:30.841Z,50.24
2023-03-29T21:30:58.892Z,50.76
2023-03-29T21:34:26.890Z,50.08
2023-03-29T21:37:54.956Z,50.19
2023-03-29T21:41:22.728Z,50.22
2023-03-29T21:44:11.800Z,51.02
2023-03-29T21:47:39.885Z,50.41
2023-03-29T21:51:07.707Z,52.38
2023-03-29T21:54:15.704Z,51.39
2023-03-29T21:57:43.572Z,51.94
2023-03-29T22:01:11.940Z,53.24
2023-03-29T22:04:39.756Z,54.30
2023-03-29T22:08:07.737Z,54.82
2023-03-29T22:11:35.789Z,54.24
2023-03-29T22:15:03.647Z,55.30
2023-03-29T22:18:31.409Z,54.63
2023-03-29T22:21:59.195Z,54.55
2023-03-29T22:25:27.158Z,55.45
2023-03-29T22:28:55.117Z,56.72
2023-03-29T22:32:23.453Z,55.88
2023-03-29T22:35:55.921Z,57.72
2023-03-29T22:39:24.251Z,57.45
2023-03-29T22:42:52.102Z,57.72
2023-03-29T22:46:20.040Z,57.91
2023-03-29T22:49:47.803Z,58.99
2023-03-29T22:53:15.752Z,59.29
2023-03-29T22:56:24.961Z,61.09
2023-03-29T22:59:53.146Z,58.30
2023-03-29T23:03:21.001Z,59.48
2023-03-29T23:06:48.959Z,59.92
2023-03-29T23:10:16.865Z,57.54
2023-03-29T23:13:44.729Z,57.75
2023-03-29T23:17:12.535Z,58.55
2023-03-29T23:20:41.376Z,60.30
2023-03-29T23:24:09.695Z,58.80
2023-03-29T23:27:37.309Z,58.35
2023-03-29T23:31:06.598Z,58.29
2023-03-29T23:34:34.313Z,58.18
2023-03-29T23:38:02.079Z,59.21
2023-03-29T23:41:29.878Z,59.73
2023-03-29T23:44:57.725Z,58.85
2023-03-29T23:48:25.723Z,60.07
2023-03-29T23:51:53.885Z,60.48
2023-03-29T23:55:23.076Z,60.18
2023-03-29T23:58:51.061Z,61.74
